sensor_id;sensor_type;location;lat;lon;timestamp;P1;durP1;ratioP1;P2;durP2;ratioP2
286;SDS011;127;48.770;9.212;2023-04-29T00:01:51;5.10;;;2.60;;
286;SDS011;127;48.770;9.212;2023-04-29T00:04:26;3.30;;;2.93;;
286;SDS011;127;48.770;9.212;2023-04-29T00:06:54;4.13;;;2.77;;
286;SDS011;127;48.770;9.212;2023-04-29T00:09:23;2.90;;;2.70;;
286;SDS011;127;48.770;9.212;2023-04-29T00:11:52;3.00;;;2.60;;
286;SDS011;127;48.770;9.212;2023-04-29T00:14:23;3.93;;;2.50;;
286;SDS011;127;48.770;9.212;2023-04-29T00:16:55;3.43;;;2.73;;
286;SDS011;127;48.770;9.212;2023-04-29T00:19:29;2.27;;;2.10;;
286;SDS011;127;48.770;9.212;2023-04-29T00:21:58;2.93;;;2.13;;
286;SDS011;127;48.770;9.212;2023-04-29T00:24:31;2.80;;;2.27;;
286;SDS011;127;48.770;9.212;2023-04-29T00:27:00;4.87;;;2.83;;
286;SDS011;127;48.770;9.212;2023-04-29T00:29:30;3.30;;;2.77;;
286;SDS011;127;48.770;9.212;2023-04-29T00:31:59;4.90;;;2.77;;
286;SDS011;127;48.770;9.212;2023-04-29T00:34:30;4.67;;;2.60;;
286;SDS011;127;48.770;9.212;2023-04-29T00:36:58;8.50;;;3.10;;
286;SDS011;127;48.770;9.212;2023-04-29T00:39:28;4.00;;;2.10;;
286;SDS011;127;48.770;9.212;2023-04-29T00:41:58;2.57;;;2.30;;
286;SDS011;127;48.770;9.212;2023-04-29T00:44:28;3.13;;;2.40;;
286;SDS011;127;48.770;9.212;2023-04-29T00:46:59;2.33;;;2.20;;
286;SDS011;127;48.770;9.212;2023-04-29T00:49:30;5.03;;;2.63;;
286;SDS011;127;48.770;9.212;2023-04-29T00:52:01;3.40;;;2.20;;
286;SDS011;127;48.770;9.212;2023-04-29T00:54:32;2.70;;;2.60;;
286;SDS011;127;48.770;9.212;2023-04-29T00:57:03;2.40;;;2.20;;
286;SDS011;127;48.770;9.212;2023-04-29T00:59:36;4.50;;;2.90;;
286;SDS011;127;48.770;9.212;2023-04-29T01:02:09;7.93;;;2.80;;
286;SDS011;127;48.770;9.212;2023-04-29T01:04:41;6.60;;;2.73;;
286;SDS011;127;48.770;9.212;2023-04-29T01:07:13;4.10;;;2.83;;
286;SDS011;127;48.770;9.212;2023-04-29T01:09:48;4.33;;;3.37;;
286;SDS011;127;48.770;9.212;2023-04-29T01:12:31;5.10;;;2.90;;
286;SDS011;127;48.770;9.212;2023-04-29T01:15:09;4.17;;;2.80;;
286;SDS011;127;48.770;9.212;2023-04-29T01:17:47;3.77;;;2.70;;
286;SDS011;127;48.770;9.212;2023-04-29T01:20:25;2.60;;;2.43;;
286;SDS011;127;48.770;9.212;2023-04-29T01:23:08;9.20;;;2.93;;
286;SDS011;127;48.770;9.212;2023-04-29T01:25:41;3.30;;;3.10;;
286;SDS011;127;48.770;9.212;2023-04-29T01:28:13;2.67;;;2.43;;
286;SDS011;127;48.770;9.212;2023-04-29T01:31:06;5.30;;;3.20;;
286;SDS011;127;48.770;9.212;2023-04-29T01:33:39;7.60;;;2.40;;
286;SDS011;127;48.770;9.212;2023-04-29T01:36:17;3.27;;;2.90;;
286;SDS011;127;48.770;9.212;2023-04-29T01:39:02;3.60;;;2.73;;
286;SDS011;127;48.770;9.212;2023-04-29T01:41:41;3.80;;;2.57;;
286;SDS011;127;48.770;9.212;2023-04-29T01:44:14;7.43;;;2.50;;
286;SDS011;127;48.770;9.212;2023-04-29T01:46:48;4.70;;;2.80;;
286;SDS011;127;48.770;9.212;2023-04-29T01:49:19;3.60;;;3.17;;
286;SDS011;127;48.770;9.212;2023-04-29T01:51:48;3.57;;;2.67;;
286;SDS011;127;48.770;9.212;2023-04-29T01:54:20;3.07;;;2.60;;
286;SDS011;127;48.770;9.212;2023-04-29T01:56:51;3.50;;;2.33;;
286;SDS011;127;48.770;9.212;2023-04-29T01:59:21;4.17;;;2.80;;
286;SDS011;127;48.770;9.212;2023-04-29T02:01:50;6.03;;;2.87;;
286;SDS011;127;48.770;9.212;2023-04-29T02:04:21;2.60;;;2.30;;
286;SDS011;127;48.770;9.212;2023-04-29T02:06:52;3.33;;;2.53;;
286;SDS011;127;48.770;9.212;2023-04-29T02:09:21;19.47;;;2.80;;
286;SDS011;127;48.770;9.212;2023-04-29T02:11:52;4.13;;;2.57;;
286;SDS011;127;48.770;9.212;2023-04-29T02:14:21;3.60;;;2.80;;
286;SDS011;127;48.770;9.212;2023-04-29T02:16:50;2.67;;;2.53;;
286;SDS011;127;48.770;9.212;2023-04-29T02:19:26;6.63;;;3.07;;
286;SDS011;127;48.770;9.212;2023-04-29T02:21:56;6.13;;;3.20;;
286;SDS011;127;48.770;9.212;2023-04-29T02:24:25;5.10;;;2.90;;
286;SDS011;127;48.770;9.212;2023-04-29T02:26:56;3.93;;;2.57;;
286;SDS011;127;48.770;9.212;2023-04-29T02:29:29;5.07;;;2.70;;
286;SDS011;127;48.770;9.212;2023-04-29T02:31:58;2.70;;;2.47;;
286;SDS011;127;48.770;9.212;2023-04-29T02:34:27;4.33;;;2.60;;
286;SDS011;127;48.770;9.212;2023-04-29T02:36:56;5.63;;;2.67;;
286;SDS011;127;48.770;9.212;2023-04-29T02:39:24;4.70;;;2.63;;
286;SDS011;127;48.770;9.212;2023-04-29T02:41:56;5.03;;;2.80;;
286;SDS011;127;48.770;9.212;2023-04-29T02:44:31;5.93;;;3.43;;
286;SDS011;127;48.770;9.212;2023-04-29T02:46:59;4.83;;;2.83;;
286;SDS011;127;48.770;9.212;2023-04-29T02:49:30;4.37;;;2.83;;
286;SDS011;127;48.770;9.212;2023-04-29T02:51:59;4.00;;;3.10;;
286;SDS011;127;48.770;9.212;2023-04-29T02:54:29;7.33;;;3.30;;
286;SDS011;127;48.770;9.212;2023-04-29T02:57:00;5.47;;;3.37;;
286;SDS011;127;48.770;9.212;2023-04-29T02:59:32;5.13;;;3.40;;
286;SDS011;127;48.770;9.212;2023-04-29T03:02:01;4.90;;;2.87;;
286;SDS011;127;48.770;9.212;2023-04-29T03:04:30;8.43;;;3.40;;
286;SDS011;127;48.770;9.212;2023-04-29T03:06:59;3.50;;;2.70;;
286;SDS011;127;48.770;9.212;2023-04-29T03:09:28;6.10;;;4.00;;
286;SDS011;127;48.770;9.212;2023-04-29T03:11:57;3.50;;;3.27;;
286;SDS011;127;48.770;9.212;2023-04-29T03:14:29;4.37;;;3.70;;
286;SDS011;127;48.770;9.212;2023-04-29T03:16:58;5.43;;;4.23;;
286;SDS011;127;48.770;9.212;2023-04-29T03:19:27;5.53;;;3.80;;
286;SDS011;127;48.770;9.212;2023-04-29T03:21:55;6.40;;;4.40;;
286;SDS011;127;48.770;9.212;2023-04-29T03:24:24;5.10;;;4.30;;
286;SDS011;127;48.770;9.212;2023-04-29T03:26:53;4.93;;;3.80;;
286;SDS011;127;48.770;9.212;2023-04-29T03:29:26;5.50;;;4.00;;
286;SDS011;127;48.770;9.212;2023-04-29T03:31:56;4.60;;;3.30;;
286;SDS011;127;48.770;9.212;2023-04-29T03:34:26;4.20;;;3.90;;
286;SDS011;127;48.770;9.212;2023-04-29T03:36:55;5.87;;;4.23;;
286;SDS011;127;48.770;9.212;2023-04-29T03:39:24;6.50;;;4.13;;
286;SDS011;127;48.770;9.212;2023-04-29T03:41:56;5.97;;;3.70;;
286;SDS011;127;48.770;9.212;2023-04-29T03:44:28;5.90;;;3.60;;
286;SDS011;127;48.770;9.212;2023-04-29T03:46:56;5.10;;;3.97;;
286;SDS011;127;48.770;9.212;2023-04-29T03:49:25;5.77;;;3.77;;
286;SDS011;127;48.770;9.212;2023-04-29T03:51:59;8.83;;;4.30;;
286;SDS011;127;48.770;9.212;2023-04-29T03:54:28;6.63;;;4.50;;
286;SDS011;127;48.770;9.212;2023-04-29T03:56:57;8.17;;;5.70;;
286;SDS011;127;48.770;9.212;2023-04-29T03:59:33;4.63;;;3.63;;
286;SDS011;127;48.770;9.212;2023-04-29T04:02:02;6.23;;;4.40;;
286;SDS011;127;48.770;9.212;2023-04-29T04:04:31;5.80;;;4.20;;
286;SDS011;127;48.770;9.212;2023-04-29T04:06:59;4.90;;;4.63;;
286;SDS011;127;48.770;9.212;2023-04-29T04:09:32;6.90;;;4.70;;
286;SDS011;127;48.770;9.212;2023-04-29T04:12:04;6.67;;;5.10;;
286;SDS011;127;48.770;9.212;2023-04-29T04:14:36;9.80;;;4.93;;
286;SDS011;127;48.770;9.212;2023-04-29T04:17:08;7.70;;;5.30;;
286;SDS011;127;48.770;9.212;2023-04-29T04:19:37;5.30;;;4.60;;
286;SDS011;127;48.770;9.212;2023-04-29T04:22:05;9.40;;;4.90;;
286;SDS011;127;48.770;9.212;2023-04-29T04:24:35;7.10;;;4.70;;
286;SDS011;127;48.770;9.212;2023-04-29T04:27:04;7.50;;;5.60;;
286;SDS011;127;48.770;9.212;2023-04-29T04:29:35;6.03;;;4.90;;
286;SDS011;127;48.770;9.212;2023-04-29T04:32:04;6.27;;;5.00;;
286;SDS011;127;48.770;9.212;2023-04-29T04:34:33;7.93;;;5.10;;
286;SDS011;127;48.770;9.212;2023-04-29T04:37:04;9.80;;;5.77;;
286;SDS011;127;48.770;9.212;2023-04-29T04:39:33;6.63;;;5.43;;
286;SDS011;127;48.770;9.212;2023-04-29T04:42:02;7.47;;;5.50;;
286;SDS011;127;48.770;9.212;2023-04-29T04:44:31;7.37;;;5.47;;
286;SDS011;127;48.770;9.212;2023-04-29T04:47:04;6.70;;;4.80;;
286;SDS011;127;48.770;9.212;2023-04-29T04:49:33;6.80;;;5.30;;
286;SDS011;127;48.770;9.212;2023-04-29T04:52:04;5.90;;;5.10;;
286;SDS011;127;48.770;9.212;2023-04-29T04:54:32;5.67;;;5.03;;
286;SDS011;127;48.770;9.212;2023-04-29T04:57:02;6.30;;;5.50;;
286;SDS011;127;48.770;9.212;2023-04-29T04:59:31;8.50;;;5.80;;
286;SDS011;127;48.770;9.212;2023-04-29T05:02:00;9.60;;;4.97;;
286;SDS011;127;48.770;9.212;2023-04-29T05:04:31;8.50;;;5.97;;
286;SDS011;127;48.770;9.212;2023-04-29T05:07:00;11.57;;;5.13;;
286;SDS011;127;48.770;9.212;2023-04-29T05:09:30;6.90;;;6.00;;
286;SDS011;127;48.770;9.212;2023-04-29T05:11:59;7.47;;;5.57;;
286;SDS011;127;48.770;9.212;2023-04-29T05:14:28;8.63;;;5.87;;
286;SDS011;127;48.770;9.212;2023-04-29T05:16:57;8.37;;;5.73;;
286;SDS011;127;48.770;9.212;2023-04-29T05:19:26;7.27;;;6.10;;
286;SDS011;127;48.770;9.212;2023-04-29T05:21:58;10.23;;;5.80;;
286;SDS011;127;48.770;9.212;2023-04-29T05:24:26;9.37;;;6.47;;
286;SDS011;127;48.770;9.212;2023-04-29T05:26:56;11.23;;;5.97;;
286;SDS011;127;48.770;9.212;2023-04-29T05:29:25;6.10;;;5.70;;
286;SDS011;127;48.770;9.212;2023-04-29T05:31:54;8.30;;;6.20;;
286;SDS011;127;48.770;9.212;2023-04-29T05:34:23;11.57;;;6.03;;
286;SDS011;127;48.770;9.212;2023-04-29T05:36:56;9.90;;;6.57;;
286;SDS011;127;48.770;9.212;2023-04-29T05:39:28;8.03;;;6.17;;
286;SDS011;127;48.770;9.212;2023-04-29T05:42:05;15.00;;;5.97;;
286;SDS011;127;48.770;9.212;2023-04-29T05:44:34;8.60;;;6.27;;
286;SDS011;127;48.770;9.212;2023-04-29T05:47:03;10.13;;;6.40;;
286;SDS011;127;48.770;9.212;2023-04-29T05:49:32;9.87;;;7.20;;
286;SDS011;127;48.770;9.212;2023-04-29T05:52:03;10.87;;;6.20;;
286;SDS011;127;48.770;9.212;2023-04-29T05:54:32;7.03;;;5.87;;
286;SDS011;127;48.770;9.212;2023-04-29T05:57:01;12.10;;;6.57;;
286;SDS011;127;48.770;9.212;2023-04-29T05:59:30;8.00;;;6.30;;
286;SDS011;127;48.770;9.212;2023-04-29T06:02:03;11.83;;;6.53;;
286;SDS011;127;48.770;9.212;2023-04-29T06:04:31;9.90;;;6.03;;
286;SDS011;127;48.770;9.212;2023-04-29T06:07:03;7.90;;;4.60;;
286;SDS011;127;48.770;9.212;2023-04-29T06:09:33;9.20;;;5.50;;
286;SDS011;127;48.770;9.212;2023-04-29T06:12:05;10.50;;;5.73;;
286;SDS011;127;48.770;9.212;2023-04-29T06:14:34;6.97;;;5.17;;
286;SDS011;127;48.770;9.212;2023-04-29T06:17:04;7.00;;;5.37;;
286;SDS011;127;48.770;9.212;2023-04-29T06:19:32;11.60;;;5.00;;
286;SDS011;127;48.770;9.212;2023-04-29T06:22:07;6.83;;;4.47;;
286;SDS011;127;48.770;9.212;2023-04-29T06:24:36;7.23;;;4.90;;
286;SDS011;127;48.770;9.212;2023-04-29T06:27:04;7.20;;;4.90;;
286;SDS011;127;48.770;9.212;2023-04-29T06:29:35;8.63;;;5.30;;
286;SDS011;127;48.770;9.212;2023-04-29T06:32:04;8.20;;;5.03;;
286;SDS011;127;48.770;9.212;2023-04-29T06:34:32;7.93;;;5.13;;
286;SDS011;127;48.770;9.212;2023-04-29T06:37:03;8.87;;;5.43;;
286;SDS011;127;48.770;9.212;2023-04-29T06:39:34;8.60;;;5.27;;
286;SDS011;127;48.770;9.212;2023-04-29T06:42:03;7.40;;;4.17;;
286;SDS011;127;48.770;9.212;2023-04-29T06:44:32;7.23;;;4.23;;
286;SDS011;127;48.770;9.212;2023-04-29T06:47:01;7.20;;;4.10;;
286;SDS011;127;48.770;9.212;2023-04-29T06:49:29;6.07;;;5.23;;
286;SDS011;127;48.770;9.212;2023-04-29T06:51:59;7.33;;;4.27;;
286;SDS011;127;48.770;9.212;2023-04-29T06:54:31;5.70;;;5.13;;
286;SDS011;127;48.770;9.212;2023-04-29T06:56:59;9.40;;;4.40;;
286;SDS011;127;48.770;9.212;2023-04-29T06:59:29;5.03;;;4.07;;
286;SDS011;127;48.770;9.212;2023-04-29T07:01:57;7.67;;;3.80;;
286;SDS011;127;48.770;9.212;2023-04-29T07:04:26;18.03;;;4.27;;
286;SDS011;127;48.770;9.212;2023-04-29T07:06:55;10.80;;;4.10;;
286;SDS011;127;48.770;9.212;2023-04-29T07:09:26;5.00;;;3.67;;
286;SDS011;127;48.770;9.212;2023-04-29T07:11:57;6.53;;;4.07;;
286;SDS011;127;48.770;9.212;2023-04-29T07:14:26;3.50;;;3.10;;
286;SDS011;127;48.770;9.212;2023-04-29T07:16:55;5.97;;;3.43;;
286;SDS011;127;48.770;9.212;2023-04-29T07:19:27;4.90;;;3.40;;
286;SDS011;127;48.770;9.212;2023-04-29T07:21:58;3.97;;;3.10;;
286;SDS011;127;48.770;9.212;2023-04-29T07:24:29;5.40;;;3.67;;
286;SDS011;127;48.770;9.212;2023-04-29T07:27:04;4.20;;;3.30;;
286;SDS011;127;48.770;9.212;2023-04-29T07:29:33;3.30;;;3.13;;
286;SDS011;127;48.770;9.212;2023-04-29T07:32:04;5.10;;;3.53;;
286;SDS011;127;48.770;9.212;2023-04-29T07:34:33;5.23;;;3.33;;
286;SDS011;127;48.770;9.212;2023-04-29T07:37:02;6.20;;;3.37;;
286;SDS011;127;48.770;9.212;2023-04-29T07:39:30;3.37;;;3.20;;
286;SDS011;127;48.770;9.212;2023-04-29T07:42:02;3.10;;;3.00;;
286;SDS011;127;48.770;9.212;2023-04-29T07:44:37;3.67;;;2.70;;
286;SDS011;127;48.770;9.212;2023-04-29T07:47:09;4.00;;;2.90;;
286;SDS011;127;48.770;9.212;2023-04-29T07:49:39;3.77;;;2.73;;
286;SDS011;127;48.770;9.212;2023-04-29T07:52:10;3.53;;;2.70;;
286;SDS011;127;48.770;9.212;2023-04-29T07:54:39;4.82;;;2.35;;
286;SDS011;127;48.770;9.212;2023-04-29T07:57:12;4.37;;;2.53;;
286;SDS011;127;48.770;9.212;2023-04-29T07:59:55;2.77;;;2.57;;
286;SDS011;127;48.770;9.212;2023-04-29T08:02:27;7.60;;;3.00;;
286;SDS011;127;48.770;9.212;2023-04-29T08:05:04;7.10;;;2.57;;
286;SDS011;127;48.770;9.212;2023-04-29T08:07:36;4.63;;;2.67;;
286;SDS011;127;48.770;9.212;2023-04-29T08:10:10;4.87;;;2.20;;
286;SDS011;127;48.770;9.212;2023-04-29T08:12:52;9.33;;;2.87;;
286;SDS011;127;48.770;9.212;2023-04-29T08:15:23;5.30;;;3.30;;
286;SDS011;127;48.770;9.212;2023-04-29T08:17:52;6.70;;;3.03;;
286;SDS011;127;48.770;9.212;2023-04-29T08:20:21;4.63;;;2.90;;
286;SDS011;127;48.770;9.212;2023-04-29T08:22:53;3.47;;;2.80;;
286;SDS011;127;48.770;9.212;2023-04-29T08:25:31;2.57;;;2.40;;
286;SDS011;127;48.770;9.212;2023-04-29T08:28:08;4.80;;;2.60;;
286;SDS011;127;48.770;9.212;2023-04-29T08:30:38;4.47;;;2.73;;
286;SDS011;127;48.770;9.212;2023-04-29T08:33:13;5.00;;;2.60;;
286;SDS011;127;48.770;9.212;2023-04-29T08:35:58;6.93;;;2.70;;
286;SDS011;127;48.770;9.212;2023-04-29T08:38:28;3.10;;;2.70;;
286;SDS011;127;48.770;9.212;2023-04-29T08:41:07;12.77;;;2.77;;
286;SDS011;127;48.770;9.212;2023-04-29T08:43:43;4.80;;;3.20;;
286;SDS011;127;48.770;9.212;2023-04-29T08:46:12;4.00;;;2.80;;
286;SDS011;127;48.770;9.212;2023-04-29T08:48:43;6.00;;;2.90;;
286;SDS011;127;48.770;9.212;2023-04-29T08:51:13;4.53;;;2.77;;
286;SDS011;127;48.770;9.212;2023-04-29T08:53:41;4.90;;;3.90;;
286;SDS011;127;48.770;9.212;2023-04-29T08:56:12;3.90;;;3.73;;
286;SDS011;127;48.770;9.212;2023-04-29T08:58:47;3.70;;;3.20;;
286;SDS011;127;48.770;9.212;2023-04-29T09:01:22;6.83;;;4.03;;
286;SDS011;127;48.770;9.212;2023-04-29T09:04:02;4.43;;;3.80;;
286;SDS011;127;48.770;9.212;2023-04-29T09:06:36;4.63;;;3.57;;
286;SDS011;127;48.770;9.212;2023-04-29T09:09:07;10.23;;;3.83;;
286;SDS011;127;48.770;9.212;2023-04-29T09:11:38;3.23;;;3.07;;
286;SDS011;127;48.770;9.212;2023-04-29T09:14:15;7.27;;;3.73;;
286;SDS011;127;48.770;9.212;2023-04-29T09:16:45;5.13;;;3.40;;
286;SDS011;127;48.770;9.212;2023-04-29T09:21:58;6.90;;;3.50;;
286;SDS011;127;48.770;9.212;2023-04-29T09:24:28;3.57;;;3.37;;
286;SDS011;127;48.770;9.212;2023-04-29T09:26:58;3.60;;;3.20;;
286;SDS011;127;48.770;9.212;2023-04-29T09:29:30;4.60;;;3.57;;
286;SDS011;127;48.770;9.212;2023-04-29T09:32:17;4.20;;;3.33;;
286;SDS011;127;48.770;9.212;2023-04-29T09:34:47;3.70;;;3.60;;
286;SDS011;127;48.770;9.212;2023-04-29T09:37:22;4.27;;;3.70;;
286;SDS011;127;48.770;9.212;2023-04-29T09:39:52;8.00;;;3.67;;
286;SDS011;127;48.770;9.212;2023-04-29T09:42:24;4.67;;;3.93;;
286;SDS011;127;48.770;9.212;2023-04-29T09:44:55;5.97;;;4.40;;
286;SDS011;127;48.770;9.212;2023-04-29T09:47:28;3.90;;;3.30;;
286;SDS011;127;48.770;9.212;2023-04-29T09:50:09;3.90;;;3.43;;
286;SDS011;127;48.770;9.212;2023-04-29T09:52:40;3.60;;;3.47;;
286;SDS011;127;48.770;9.212;2023-04-29T09:55:13;5.80;;;3.30;;
286;SDS011;127;48.770;9.212;2023-04-29T09:57:42;5.33;;;3.40;;
286;SDS011;127;48.770;9.212;2023-04-29T10:00:14;3.53;;;3.00;;
286;SDS011;127;48.770;9.212;2023-04-29T10:02:44;4.93;;;3.37;;
286;SDS011;127;48.770;9.212;2023-04-29T10:05:19;5.20;;;2.23;;
286;SDS011;127;48.770;9.212;2023-04-29T10:07:57;5.13;;;3.20;;
286;SDS011;127;48.770;9.212;2023-04-29T10:10:26;3.60;;;2.80;;
286;SDS011;127;48.770;9.212;2023-04-29T10:13:02;4.07;;;2.90;;
286;SDS011;127;48.770;9.212;2023-04-29T10:15:38;12.33;;;2.70;;
286;SDS011;127;48.770;9.212;2023-04-29T10:18:18;4.93;;;2.53;;
286;SDS011;127;48.770;9.212;2023-04-29T10:20:48;3.70;;;2.77;;
286;SDS011;127;48.770;9.212;2023-04-29T10:23:19;3.63;;;1.80;;
286;SDS011;127;48.770;9.212;2023-04-29T10:25:54;7.83;;;2.90;;
286;SDS011;127;48.770;9.212;2023-04-29T10:28:27;2.97;;;2.60;;
286;SDS011;127;48.770;9.212;2023-04-29T10:31:06;6.30;;;2.77;;
286;SDS011;127;48.770;9.212;2023-04-29T10:33:37;6.70;;;2.80;;
286;SDS011;127;48.770;9.212;2023-04-29T10:36:10;12.27;;;2.70;;
286;SDS011;127;48.770;9.212;2023-04-29T10:38:42;3.27;;;2.80;;
286;SDS011;127;48.770;9.212;2023-04-29T10:41:17;3.93;;;2.97;;
286;SDS011;127;48.770;9.212;2023-04-29T10:43:54;6.13;;;3.30;;
286;SDS011;127;48.770;9.212;2023-04-29T10:46:28;4.60;;;3.33;;
286;SDS011;127;48.770;9.212;2023-04-29T10:48:59;5.47;;;3.00;;
286;SDS011;127;48.770;9.212;2023-04-29T10:51:31;5.43;;;2.83;;
286;SDS011;127;48.770;9.212;2023-04-29T10:54:03;4.73;;;3.20;;
286;SDS011;127;48.770;9.212;2023-04-29T10:56:38;2.97;;;2.83;;
286;SDS011;127;48.770;9.212;2023-04-29T11:02:16;4.27;;;3.10;;
286;SDS011;127;48.770;9.212;2023-04-29T11:07:38;5.23;;;3.37;;
286;SDS011;127;48.770;9.212;2023-04-29T11:10:08;9.10;;;3.10;;
286;SDS011;127;48.770;9.212;2023-04-29T11:12:37;5.60;;;3.10;;
286;SDS011;127;48.770;9.212;2023-04-29T11:15:08;6.80;;;3.87;;
286;SDS011;127;48.770;9.212;2023-04-29T11:17:40;3.70;;;2.77;;
286;SDS011;127;48.770;9.212;2023-04-29T11:20:09;5.07;;;2.33;;
286;SDS011;127;48.770;9.212;2023-04-29T11:22:40;5.40;;;2.67;;
286;SDS011;127;48.770;9.212;2023-04-29T11:25:20;4.50;;;2.60;;
286;SDS011;127;48.770;9.212;2023-04-29T11:27:53;3.53;;;2.37;;
286;SDS011;127;48.770;9.212;2023-04-29T11:30:23;5.17;;;3.23;;
286;SDS011;127;48.770;9.212;2023-04-29T11:32:55;5.87;;;2.57;;
286;SDS011;127;48.770;9.212;2023-04-29T11:35:26;6.47;;;2.70;;
286;SDS011;127;48.770;9.212;2023-04-29T11:37:55;14.27;;;2.87;;
286;SDS011;127;48.770;9.212;2023-04-29T11:40:28;5.20;;;2.27;;
286;SDS011;127;48.770;9.212;2023-04-29T11:43:08;3.03;;;2.40;;
286;SDS011;127;48.770;9.212;2023-04-29T11:45:52;5.03;;;2.43;;
286;SDS011;127;48.770;9.212;2023-04-29T11:48:24;2.40;;;1.93;;
286;SDS011;127;48.770;9.212;2023-04-29T11:50:56;7.80;;;2.43;;
286;SDS011;127;48.770;9.212;2023-04-29T11:53:28;3.63;;;2.57;;
286;SDS011;127;48.770;9.212;2023-04-29T11:55:56;2.60;;;2.07;;
286;SDS011;127;48.770;9.212;2023-04-29T11:58:25;4.30;;;2.50;;
286;SDS011;127;48.770;9.212;2023-04-29T12:00:54;3.70;;;3.30;;
286;SDS011;127;48.770;9.212;2023-04-29T12:03:35;5.23;;;3.73;;
286;SDS011;127;48.770;9.212;2023-04-29T12:06:07;6.30;;;4.10;;
286;SDS011;127;48.770;9.212;2023-04-29T12:08:36;6.50;;;3.70;;
286;SDS011;127;48.770;9.212;2023-04-29T12:11:05;7.57;;;4.67;;
286;SDS011;127;48.770;9.212;2023-04-29T12:13:35;7.90;;;4.37;;
286;SDS011;127;48.770;9.212;2023-04-29T12:16:08;8.90;;;4.17;;
286;SDS011;127;48.770;9.212;2023-04-29T12:18:40;5.87;;;3.73;;
286;SDS011;127;48.770;9.212;2023-04-29T12:21:13;7.10;;;4.50;;
286;SDS011;127;48.770;9.212;2023-04-29T12:23:45;6.50;;;4.00;;
286;SDS011;127;48.770;9.212;2023-04-29T12:26:18;6.43;;;4.10;;
286;SDS011;127;48.770;9.212;2023-04-29T12:28:47;7.50;;;4.20;;
286;SDS011;127;48.770;9.212;2023-04-29T12:31:21;6.27;;;4.00;;
286;SDS011;127;48.770;9.212;2023-04-29T12:33:55;5.53;;;3.90;;
286;SDS011;127;48.770;9.212;2023-04-29T12:36:26;5.20;;;4.33;;
286;SDS011;127;48.770;9.212;2023-04-29T12:38:57;6.27;;;3.80;;
286;SDS011;127;48.770;9.212;2023-04-29T12:41:38;10.60;;;4.60;;
286;SDS011;127;48.770;9.212;2023-04-29T12:44:09;7.03;;;3.83;;
286;SDS011;127;48.770;9.212;2023-04-29T12:46:40;6.70;;;4.80;;
286;SDS011;127;48.770;9.212;2023-04-29T12:49:14;7.80;;;4.40;;
286;SDS011;127;48.770;9.212;2023-04-29T12:51:50;5.93;;;4.47;;
286;SDS011;127;48.770;9.212;2023-04-29T12:54:21;12.00;;;5.13;;
286;SDS011;127;48.770;9.212;2023-04-29T12:56:53;7.13;;;4.43;;
286;SDS011;127;48.770;9.212;2023-04-29T12:59:22;9.60;;;5.13;;
286;SDS011;127;48.770;9.212;2023-04-29T13:01:52;8.43;;;5.17;;
286;SDS011;127;48.770;9.212;2023-04-29T13:04:24;6.97;;;4.80;;
286;SDS011;127;48.770;9.212;2023-04-29T13:06:53;8.30;;;4.83;;
286;SDS011;127;48.770;9.212;2023-04-29T13:09:30;14.63;;;5.70;;
286;SDS011;127;48.770;9.212;2023-04-29T13:12:02;5.23;;;4.53;;
286;SDS011;127;48.770;9.212;2023-04-29T13:14:33;9.27;;;5.40;;
286;SDS011;127;48.770;9.212;2023-04-29T13:17:04;10.30;;;6.53;;
286;SDS011;127;48.770;9.212;2023-04-29T13:19:47;10.67;;;5.87;;
286;SDS011;127;48.770;9.212;2023-04-29T13:22:18;10.33;;;5.10;;
286;SDS011;127;48.770;9.212;2023-04-29T13:24:47;8.33;;;5.67;;
286;SDS011;127;48.770;9.212;2023-04-29T13:27:22;9.47;;;6.20;;
286;SDS011;127;48.770;9.212;2023-04-29T13:29:50;6.77;;;5.70;;
286;SDS011;127;48.770;9.212;2023-04-29T13:32:20;9.40;;;7.13;;
286;SDS011;127;48.770;9.212;2023-04-29T13:34:52;11.00;;;7.30;;
286;SDS011;127;48.770;9.212;2023-04-29T13:37:23;9.93;;;5.90;;
286;SDS011;127;48.770;9.212;2023-04-29T13:39:52;11.87;;;6.80;;
286;SDS011;127;48.770;9.212;2023-04-29T13:42:21;14.00;;;6.33;;
286;SDS011;127;48.770;9.212;2023-04-29T13:44:50;10.67;;;6.67;;
286;SDS011;127;48.770;9.212;2023-04-29T13:47:26;13.80;;;6.57;;
286;SDS011;127;48.770;9.212;2023-04-29T13:49:57;9.60;;;6.37;;
286;SDS011;127;48.770;9.212;2023-04-29T13:52:27;9.90;;;6.90;;
286;SDS011;127;48.770;9.212;2023-04-29T13:54:56;10.17;;;6.37;;
286;SDS011;127;48.770;9.212;2023-04-29T13:57:25;10.27;;;6.70;;
286;SDS011;127;48.770;9.212;2023-04-29T13:59:54;10.57;;;5.93;;
286;SDS011;127;48.770;9.212;2023-04-29T14:02:27;9.00;;;6.27;;
286;SDS011;127;48.770;9.212;2023-04-29T14:04:59;15.73;;;6.70;;
286;SDS011;127;48.770;9.212;2023-04-29T14:07:27;10.97;;;7.20;;
286;SDS011;127;48.770;9.212;2023-04-29T14:09:59;13.43;;;7.17;;
286;SDS011;127;48.770;9.212;2023-04-29T14:12:28;8.73;;;6.07;;
286;SDS011;127;48.770;9.212;2023-04-29T14:14:57;10.33;;;6.50;;
286;SDS011;127;48.770;9.212;2023-04-29T14:17:27;10.00;;;6.47;;
286;SDS011;127;48.770;9.212;2023-04-29T14:20:00;10.30;;;7.20;;
286;SDS011;127;48.770;9.212;2023-04-29T14:22:29;9.93;;;5.90;;
286;SDS011;127;48.770;9.212;2023-04-29T14:24:58;14.17;;;7.30;;
286;SDS011;127;48.770;9.212;2023-04-29T14:27:27;10.30;;;6.47;;
286;SDS011;127;48.770;9.212;2023-04-29T14:29:55;14.83;;;7.00;;
286;SDS011;127;48.770;9.212;2023-04-29T14:32:24;15.50;;;8.33;;
286;SDS011;127;48.770;9.212;2023-04-29T14:34:53;10.93;;;6.17;;
286;SDS011;127;48.770;9.212;2023-04-29T14:37:26;9.77;;;6.50;;
286;SDS011;127;48.770;9.212;2023-04-29T14:39:55;13.83;;;7.33;;
286;SDS011;127;48.770;9.212;2023-04-29T14:42:27;14.53;;;6.97;;
286;SDS011;127;48.770;9.212;2023-04-29T14:44:57;10.30;;;6.47;;
286;SDS011;127;48.770;9.212;2023-04-29T14:47:26;14.13;;;7.00;;
286;SDS011;127;48.770;9.212;2023-04-29T14:49:55;11.53;;;6.53;;
286;SDS011;127;48.770;9.212;2023-04-29T14:52:27;11.53;;;6.70;;
286;SDS011;127;48.770;9.212;2023-04-29T14:54:55;13.97;;;7.47;;
286;SDS011;127;48.770;9.212;2023-04-29T14:57:24;11.97;;;6.67;;
286;SDS011;127;48.770;9.212;2023-04-29T14:59:54;11.90;;;7.27;;
286;SDS011;127;48.770;9.212;2023-04-29T15:02:24;11.53;;;7.53;;
286;SDS011;127;48.770;9.212;2023-04-29T15:04:53;13.20;;;7.60;;
286;SDS011;127;48.770;9.212;2023-04-29T15:07:22;13.07;;;7.30;;
286;SDS011;127;48.770;9.212;2023-04-29T15:09:54;12.30;;;7.20;;
286;SDS011;127;48.770;9.212;2023-04-29T15:12:22;14.23;;;6.97;;
286;SDS011;127;48.770;9.212;2023-04-29T15:14:51;11.27;;;7.50;;
286;SDS011;127;48.770;9.212;2023-04-29T15:17:20;21.17;;;8.37;;
286;SDS011;127;48.770;9.212;2023-04-29T15:19:49;12.00;;;7.43;;
286;SDS011;127;48.770;9.212;2023-04-29T15:22:20;13.30;;;7.40;;
286;SDS011;127;48.770;9.212;2023-04-29T15:24:49;12.90;;;7.40;;
286;SDS011;127;48.770;9.212;2023-04-29T15:27:21;15.33;;;7.57;;
286;SDS011;127;48.770;9.212;2023-04-29T15:29:50;13.00;;;6.90;;
286;SDS011;127;48.770;9.212;2023-04-29T15:32:21;16.70;;;7.23;;
286;SDS011;127;48.770;9.212;2023-04-29T15:34:55;10.60;;;6.97;;
286;SDS011;127;48.770;9.212;2023-04-29T15:37:26;11.40;;;6.87;;
286;SDS011;127;48.770;9.212;2023-04-29T15:39:55;12.00;;;6.53;;
286;SDS011;127;48.770;9.212;2023-04-29T15:42:28;10.70;;;6.90;;
286;SDS011;127;48.770;9.212;2023-04-29T15:44:57;15.43;;;6.30;;
286;SDS011;127;48.770;9.212;2023-04-29T15:47:26;12.63;;;6.60;;
286;SDS011;127;48.770;9.212;2023-04-29T15:49:54;12.63;;;7.80;;
286;SDS011;127;48.770;9.212;2023-04-29T15:52:23;14.23;;;8.60;;
286;SDS011;127;48.770;9.212;2023-04-29T15:54:52;12.37;;;7.60;;
286;SDS011;127;48.770;9.212;2023-04-29T15:57:21;12.80;;;7.20;;
286;SDS011;127;48.770;9.212;2023-04-29T15:59:52;16.83;;;7.77;;
286;SDS011;127;48.770;9.212;2023-04-29T16:02:21;16.27;;;8.47;;
286;SDS011;127;48.770;9.212;2023-04-29T16:04:50;12.77;;;7.70;;
286;SDS011;127;48.770;9.212;2023-04-29T16:07:18;17.43;;;8.20;;
286;SDS011;127;48.770;9.212;2023-04-29T16:09:50;11.33;;;7.33;;
286;SDS011;127;48.770;9.212;2023-04-29T16:12:19;12.93;;;7.93;;
286;SDS011;127;48.770;9.212;2023-04-29T16:14:47;11.10;;;6.77;;
286;SDS011;127;48.770;9.212;2023-04-29T16:17:21;11.83;;;7.30;;